Time;durP1;ratioP1;P1;durP2;ratioP2;P2;SDS_P1;SDS_P2;PMS_P1;PMS_P2;Temp;Humidity;BMP_temperature;BMP_pressure;BME280_temperature;BME280_humidity;BME280_pressure;Samples;Min_cycle;Max_cycle;Signal;HPM_P1;HPM_P2
2023/01/01 00:02:06;;;;;;;;;;;;;;;20.81;57.55;100606.38;5006052;28;4229;-68
2023/01/01 00:04:36;;;;;;;;;;;;;;;20.83;58.76;100610.06;5009829;28;4184;-71
2023/01/01 00:07:02;;;;;;;;;;;;;;;20.81;58.77;100601.34;5014091;28;4138;-69
2023/01/01 00:12:13;;;;;;;;;;;;;;;20.83;59.04;100601.44;5011515;28;4201;-71
2023/01/01 00:14:43;;;;;;;;;;;;;;;20.84;58.80;100600.03;5022946;28;4221;-71
2023/01/01 00:17:09;;;;;;;;;;;;;;;20.83;59.07;100615.81;5011410;28;4180;-71
2023/01/01 00:19:35;;;;;;;;;;;;;;;20.82;59.25;100610.72;5015173;28;4042;-70
2023/01/01 00:22:02;;;;;;;;;;;;;;;20.80;59.21;100610.63;5016869;28;4007;-70
2023/01/01 00:24:48;;;;;;;;;;;;;;;20.81;59.30;100615.00;5016297;28;4210;-72
2023/01/01 00:27:15;;;;;;;;;;;;;;;20.79;59.27;100612.78;5016975;28;4054;-72
2023/01/01 00:29:41;;;;;;;;;;;;;;;20.80;59.21;100625.78;5013335;28;4218;-72
2023/01/01 00:32:07;;;;;;;;;;;;;;;20.79;59.50;100615.66;5015616;28;5324;-72
2023/01/01 00:34:37;;;;;;;;;;;;;;;20.80;59.35;100614.28;5014672;28;4195;-72
2023/01/01 00:37:03;;;;;;;;;;;;;;;20.80;59.58;100619.25;5019543;28;4272;-71
2023/01/01 00:39:32;;;;;;;;;;;;;;;20.83;59.42;100635.22;5017372;28;4215;-71
2023/01/01 00:41:59;;;;;;;;;;;;;;;20.98;58.94;100625.03;5018373;28;4026;-71
2023/01/01 00:44:25;;;;;;;;;;;;;;;21.01;58.72;100623.72;5012993;28;4030;-70
2023/01/01 00:46:54;;;;;;;;;;;;;;;20.96;58.83;100622.06;5010775;28;4116;-68
2023/01/01 00:49:21;;;;;;;;;;;;;;;20.92;58.30;100626.25;5014079;28;4307;-68
2023/01/01 00:51:50;;;;;;;;;;;;;;;20.90;58.46;100626.19;5020006;28;4169;-69
2023/01/01 00:54:16;;;;;;;;;;;;;;;20.89;58.49;100632.59;5007905;28;5500;-70
2023/01/01 00:56:43;;;;;;;;;;;;;;;20.88;58.61;100631.84;5016345;28;4124;-69
2023/01/01 00:59:09;;;;;;;;;;;;;;;20.87;58.68;100644.03;5017035;28;4255;-68
2023/01/01 01:01:39;;;;;;;;;;;;;;;20.86;58.97;100643.28;5015191;28;4285;-69
2023/01/01 01:04:07;;;;;;;;;;;;;;;20.86;59.41;100649.03;5017935;28;4339;-70
2023/01/01 01:06:34;;;;;;;;;;;;;;;20.86;58.83;100654.06;5014822;28;5464;-69
2023/01/01 01:09:00;;;;;;;;;;;;;;;20.84;59.13;100656.84;4987939;28;5250;-69
2023/01/01 01:11:26;;;;;;;;;;;;;;;20.84;59.32;100646.06;5014920;28;5304;-70
2023/01/01 01:13:54;;;;;;;;;;;;;;;20.83;59.23;100647.47;5018164;28;4061;-69
2023/01/01 01:16:40;;;;;;;;;;;;;;;20.84;60.41;100651.81;5013565;28;5231;-69
2023/01/01 01:19:12;;;;;;;;;;;;;;;20.83;60.13;100655.38;5013303;28;4190;-69
2023/01/01 01:21:39;;;;;;;;;;;;;;;20.84;60.65;100660.47;5011345;28;4214;-69
2023/01/01 01:24:05;;;;;;;;;;;;;;;20.84;60.48;100651.09;5010332;28;4403;-68
2023/01/01 01:26:32;;;;;;;;;;;;;;;20.85;60.80;100664.09;5020830;28;4098;-69
2023/01/01 01:28:58;;;;;;;;;;;;;;;20.84;60.55;100669.09;5016260;28;3980;-68
2023/01/01 01:31:28;;;;;;;;;;;;;;;20.85;61.84;100664.84;5016328;28;4427;-69
2023/01/01 01:33:55;;;;;;;;;;;;;;;20.86;61.45;100669.19;5013562;28;4203;-69
2023/01/01 01:36:24;;;;;;;;;;;;;;;20.86;61.64;100662.69;5011967;28;4174;-68
2023/01/01 01:38:50;;;;;;;;;;;;;;;20.85;61.54;100670.59;5017596;28;5438;-69
2023/01/01 01:41:20;;;;;;;;;;;;;;;20.83;60.70;100667.63;5017190;28;5312;-69
2023/01/01 01:43:56;;;;;;;;;;;;;;;20.83;60.81;100664.75;5019051;28;4004;-69
2023/01/01 01:46:28;;;;;;;;;;;;;;;20.83;61.02;100655.38;5016989;28;4160;-69
2023/01/01 01:48:55;;;;;;;;;;;;;;;20.83;61.13;100658.25;5013113;28;4354;-70
2023/01/01 01:51:23;;;;;;;;;;;;;;;20.81;61.04;100658.16;5017880;28;4099;-70
2023/01/01 01:53:54;;;;;;;;;;;;;;;20.80;60.85;100648.81;5016884;28;5551;-68
2023/01/01 01:56:22;;;;;;;;;;;;;;;20.80;60.62;100659.56;4991819;28;4152;-68
2023/01/01 01:58:53;;;;;;;;;;;;;;;20.81;61.05;100669.69;4988564;28;4253;-69
2023/01/01 02:01:22;;;;;;;;;;;;;;;20.80;61.16;100666.06;5018951;28;4116;-69
2023/01/01 02:03:58;;;;;;;;;;;;;;;20.79;60.82;100670.31;5017116;28;4080;-69
2023/01/01 02:06:28;;;;;;;;;;;;;;;20.80;60.91;100668.19;5013978;28;4220;-70
2023/01/01 02:08:54;;;;;;;;;;;;;;;20.80;60.84;100677.56;5014855;28;4170;-69
2023/01/01 02:11:21;;;;;;;;;;;;;;;20.80;60.87;100676.81;5018427;28;4137;-69
2023/01/01 02:13:47;;;;;;;;;;;;;;;20.79;60.42;100664.56;5009611;28;4197;-69
2023/01/01 02:16:20;;;;;;;;;;;;;;;20.78;60.89;100665.97;5011997;28;4196;-69
2023/01/01 02:19:08;;;;;;;;;;;;;;;20.78;60.72;100671.75;5009640;28;4138;-69
2023/01/01 02:21:38;;;;;;;;;;;;;;;20.77;60.80;100670.25;5017304;28;4300;-72
2023/01/01 02:24:21;;;;;;;;;;;;;;;20.77;60.96;100670.25;4991890;28;4136;-69
2023/01/01 02:26:49;;;;;;;;;;;;;;;20.78;60.78;100671.75;5011738;28;4580;-69
2023/01/01 02:29:19;;;;;;;;;;;;;;;20.78;61.25;100654.47;5009819;28;4159;-69
2023/01/01 02:31:48;;;;;;;;;;;;;;;20.78;61.18;100660.22;4998842;28;4698;-68
2023/01/01 02:34:17;;;;;;;;;;;;;;;20.77;61.14;100658.72;5009112;28;4243;-70
2023/01/01 02:36:45;;;;;;;;;;;;;;;20.76;61.17;100651.50;4994284;28;4167;-69
2023/01/01 02:39:18;;;;;;;;;;;;;;;20.78;61.10;100654.47;4995039;28;4183;-69
2023/01/01 02:41:45;;;;;;;;;;;;;;;20.77;60.79;100652.97;4998876;28;4375;-68
2023/01/01 02:44:11;;;;;;;;;;;;;;;20.77;61.10;100655.84;4998067;28;4114;-69
2023/01/01 02:46:38;;;;;;;;;;;;;;;20.76;61.33;100645.75;5009811;28;5228;-70
2023/01/01 02:49:04;;;;;;;;;;;;;;;20.77;61.12;100644.34;5012430;28;4006;-71
2023/01/01 02:51:44;;;;;;;;;;;;;;;20.77;61.34;100652.25;5006379;28;4212;-70
2023/01/01 02:54:16;;;;;;;;;;;;;;;20.77;61.63;100638.59;5015970;28;4137;-70
2023/01/01 02:57:02;;;;;;;;;;;;;;;20.76;61.66;100637.13;5008409;28;4291;-68
2023/01/01 03:02:20;;;;;;;;;;;;;;;20.78;61.38;100642.97;5003143;28;4191;-69
2023/01/01 03:04:49;;;;;;;;;;;;;;;20.77;61.35;100647.22;4997831;28;5292;-69
2023/01/01 03:07:36;;;;;;;;;;;;;;;20.78;61.59;100648.72;4995314;28;5402;-69
2023/01/01 03:10:06;;;;;;;;;;;;;;;20.79;61.71;100638.69;5020885;28;4161;-69
2023/01/01 03:12:42;;;;;;;;;;;;;;;20.79;61.53;100650.19;5014852;28;4180;-69
2023/01/01 03:15:11;;;;;;;;;;;;;;;20.79;61.43;100650.19;4995567;28;4286;-69
2023/01/01 03:17:38;;;;;;;;;;;;;;;20.78;61.62;100651.59;5000826;28;4200;-69
2023/01/01 03:20:09;;;;;;;;;;;;;;;20.78;61.77;100642.22;5020987;28;4283;-69
2023/01/01 03:22:35;;;;;;;;;;;;;;;20.77;61.29;100655.84;4997277;28;4237;-69
2023/01/01 03:25:18;;;;;;;;;;;;;;;20.77;61.16;100650.09;5002744;28;5399;-69
2023/01/01 03:27:48;;;;;;;;;;;;;;;20.77;61.19;100652.97;4999103;28;4243;-69
2023/01/01 03:30:18;;;;;;;;;;;;;;;20.77;61.51;100650.09;5019783;28;4176;-69
2023/01/01 03:32:59;;;;;;;;;;;;;;;20.78;61.18;100647.97;5000489;28;4161;-69
2023/01/01 03:35:26;;;;;;;;;;;;;;;20.79;61.29;100650.19;4993369;28;4026;-70
2023/01/01 03:37:53;;;;;;;;;;;;;;;20.80;61.74;100642.28;5020577;28;5218;-70
2023/01/01 03:40:20;;;;;;;;;;;;;;;20.82;61.95;100645.25;4994278;28;4042;-69
2023/01/01 03:42:50;;;;;;;;;;;;;;;20.82;61.98;100651.75;5000200;28;4023;-69
2023/01/01 03:45:18;;;;;;;;;;;;;;;20.80;61.93;100657.44;5021640;28;3997;-69
2023/01/01 03:47:48;;;;;;;;;;;;;;;20.82;62.02;100671.91;4999409;28;4157;-70
2023/01/01 03:50:14;;;;;;;;;;;;;;;20.82;62.08;100671.91;5021513;28;4093;-71
2023/01/01 03:52:56;;;;;;;;;;;;;;;20.82;61.94;100676.91;5000496;28;4227;-72
2023/01/01 03:55:25;;;;;;;;;;;;;;;20.81;62.11;100676.16;5007980;28;4163;-71
2023/01/01 03:58:02;;;;;;;;;;;;;;;20.81;62.29;100687.69;5005843;28;4837;-70
2023/01/01 04:00:36;;;;;;;;;;;;;;;20.80;62.16;100686.22;5023619;28;4980;-72
2023/01/01 04:03:03;;;;;;;;;;;;;;;20.80;62.10;100691.97;5023905;28;4170;-71
2023/01/01 04:05:30;;;;;;;;;;;;;;;20.81;62.33;100698.47;4996911;28;4138;-72
2023/01/01 04:07:58;;;;;;;;;;;;;;;20.80;62.00;100714.22;5021804;28;4091;-69
2023/01/01 04:10:24;;;;;;;;;;;;;;;20.80;62.33;100700.59;4999074;28;4010;-69
2023/01/01 04:12:51;;;;;;;;;;;;;;;20.80;62.37;100703.47;4998029;28;4219;-69
2023/01/01 04:15:18;;;;;;;;;;;;;;;20.80;62.04;100709.25;5019766;28;5328;-68
2023/01/01 04:17:46;;;;;;;;;;;;;;;20.80;61.91;100709.25;5024420;28;4417;-68
2023/01/01 04:20:15;;;;;;;;;;;;;;;20.80;62.29;100714.22;5024371;28;4001;-70
2023/01/01 04:22:56;;;;;;;;;;;;;;;20.81;62.19;100713.59;5019939;28;4378;-70
2023/01/01 04:25:23;;;;;;;;;;;;;;;20.80;61.85;100717.88;5022036;28;4468;-70
2023/01/01 04:27:49;;;;;;;;;;;;;;;20.81;61.86;100712.84;5023366;28;4241;-69
2023/01/01 04:30:16;;;;;;;;;;;;;;;20.81;61.91;100716.47;5025610;28;4203;-70
2023/01/01 04:32:42;;;;;;;;;;;;;;;20.80;61.55;100715.00;5020256;28;4110;-70
2023/01/01 04:35:14;;;;;;;;;;;;;;;20.81;61.87;100722.22;4997426;28;4611;-70
2023/01/01 04:37:44;;;;;;;;;;;;;;;20.80;62.00;100720.75;5020860;28;3967;-69
2023/01/01 04:40:11;;;;;;;;;;;;;;;20.80;61.84;100714.22;5025867;28;4160;-70
2023/01/01 04:42:37;;;;;;;;;;;;;;;20.80;61.81;100720.75;5023518;28;4212;-69
2023/01/01 04:45:04;;;;;;;;;;;;;;;20.79;61.77;100713.50;5022312;28;5595;-69
2023/01/01 04:47:30;;;;;;;;;;;;;;;20.80;61.53;100728.63;5025654;28;4172;-70
2023/01/01 04:49:57;;;;;;;;;;;;;;;20.79;62.08;100725.00;5024565;28;3984;-70
2023/01/01 04:52:23;;;;;;;;;;;;;;;20.81;61.75;100722.22;5023255;28;4136;-70
2023/01/01 04:54:49;;;;;;;;;;;;;;;20.79;61.79;100722.13;5024544;28;4050;-69
2023/01/01 04:57:16;;;;;;;;;;;;;;;20.81;62.11;100716.47;5023373;28;4132;-69
2023/01/01 04:59:42;;;;;;;;;;;;;;;20.83;61.72;100725.19;5024205;28;4216;-69
2023/01/01 05:02:09;;;;;;;;;;;;;;;20.82;61.86;100717.97;5021457;28;4175;-69
2023/01/01 05:04:35;;;;;;;;;;;;;;;20.79;61.57;100722.13;5022279;28;4254;-69
2023/01/01 05:07:01;;;;;;;;;;;;;;;20.80;61.47;100719.97;5022120;28;5116;-69
2023/01/01 05:09:28;;;;;;;;;;;;;;;20.80;61.77;100738.00;5021200;28;4116;-69
2023/01/01 05:11:54;;;;;;;;;;;;;;;20.80;61.39;100726.50;5015346;28;4044;-69
2023/01/01 05:14:21;;;;;;;;;;;;;;;20.79;61.62;100730.75;5016353;28;4167;-69
2023/01/01 05:16:47;;;;;;;;;;;;;;;20.79;61.47;100725.00;5022930;28;4178;-68
2023/01/01 05:19:14;;;;;;;;;;;;;;;20.79;61.36;100727.88;5022291;28;5344;-69
2023/01/01 05:21:40;;;;;;;;;;;;;;;20.80;61.56;100731.50;5022395;28;4247;-69
2023/01/01 05:24:07;;;;;;;;;;;;;;;20.78;61.48;100728.56;5023475;28;4146;-69
2023/01/01 05:26:35;;;;;;;;;;;;;;;20.79;61.29;100742.28;5020939;28;4232;-69
2023/01/01 05:29:01;;;;;;;;;;;;;;;20.79;61.53;100727.88;5019761;28;4484;-69
2023/01/01 05:31:28;;;;;;;;;;;;;;;20.79;61.66;100736.50;5017390;28;4073;-69
2023/01/01 05:33:56;;;;;;;;;;;;;;;20.79;61.56;100727.88;5019399;28;4218;-68
2023/01/01 05:36:26;;;;;;;;;;;;;;;20.79;61.39;100730.75;5022225;28;4037;-69
2023/01/01 05:38:52;;;;;;;;;;;;;;;20.79;61.66;100730.75;5025260;28;4516;-68
2023/01/01 05:41:19;;;;;;;;;;;;;;;20.80;61.43;100749.53;5020139;28;4310;-69
2023/01/01 05:43:45;;;;;;;;;;;;;;;20.79;61.35;100736.50;5022285;28;4148;-69
2023/01/01 05:46:21;;;;;;;;;;;;;;;20.80;61.41;100740.88;5022145;28;4142;-68
2023/01/01 05:48:47;;;;;;;;;;;;;;;20.79;61.38;100736.50;5024199;28;4037;-69
2023/01/01 05:51:20;;;;;;;;;;;;;;;20.79;61.65;100735.78;5020186;28;4002;-69
2023/01/01 05:53:47;;;;;;;;;;;;;;;20.79;61.53;100736.50;5022686;28;5100;-69
2023/01/01 05:56:13;;;;;;;;;;;;;;;20.79;61.80;100748.03;5020729;28;4146;-69
2023/01/01 05:58:39;;;;;;;;;;;;;;;20.80;62.27;100740.88;5022823;28;5263;-68
2023/01/01 06:01:07;;;;;;;;;;;;;;;20.80;61.86;100755.28;5021205;28;5253;-69
2023/01/01 06:03:34;;;;;;;;;;;;;;;20.80;61.54;100758.16;5024171;28;4177;-68
2023/01/01 06:06:07;;;;;;;;;;;;;;;20.80;61.93;100748.75;5021625;28;4198;-69
2023/01/01 06:08:34;;;;;;;;;;;;;;;20.80;61.60;100760.28;5018663;28;4943;-69
2023/01/01 06:11:01;;;;;;;;;;;;;;;20.78;61.92;100752.31;5018439;28;4128;-68
2023/01/01 06:13:27;;;;;;;;;;;;;;;20.79;62.00;100756.66;5018312;28;4023;-68
2023/01/01 06:15:57;;;;;;;;;;;;;;;20.79;62.49;100758.81;5016348;28;3967;-71
2023/01/01 06:18:23;;;;;;;;;;;;;;;20.79;62.16;100771.03;5022528;28;5537;-71
2023/01/01 06:20:52;;;;;;;;;;;;;;;20.79;61.82;100776.81;5014137;28;4085;-71
2023/01/01 06:23:19;;;;;;;;;;;;;;;20.79;61.75;100765.28;5021241;28;4152;-71
2023/01/01 06:25:45;;;;;;;;;;;;;;;20.80;61.79;100783.28;5018991;28;5122;-71
2023/01/01 06:28:11;;;;;;;;;;;;;;;20.79;62.01;100778.94;5022599;28;4137;-70
2023/01/01 06:30:38;;;;;;;;;;;;;;;20.79;62.14;100773.94;5021294;28;4041;-70
2023/01/01 06:33:07;;;;;;;;;;;;;;;20.80;61.97;100769.66;5022583;28;4180;-71
2023/01/01 06:35:33;;;;;;;;;;;;;;;20.82;62.17;100781.28;5015330;28;4141;-69
2023/01/01 06:38:00;;;;;;;;;;;;;;;20.85;61.85;100782.84;5020838;28;4137;-70
2023/01/01 06:40:26;;;;;;;;;;;;;;;20.87;61.93;100788.69;5019710;28;5267;-68
2023/01/01 06:42:54;;;;;;;;;;;;;;;20.87;61.85;100791.56;5021007;28;4169;-68
2023/01/01 06:45:21;;;;;;;;;;;;;;;20.89;61.78;100788.00;5021551;28;4036;-69
2023/01/01 06:47:47;;;;;;;;;;;;;;;20.91;61.99;100793.84;5023043;28;4101;-70
2023/01/01 06:50:13;;;;;;;;;;;;;;;20.90;62.28;100784.47;5014992;28;5291;-69
2023/01/01 06:52:40;;;;;;;;;;;;;;;20.89;62.38;100800.28;5023033;28;4161;-69
2023/01/01 06:55:06;;;;;;;;;;;;;;;20.91;62.20;100794.63;5020314;28;4206;-69
2023/01/01 06:57:33;;;;;;;;;;;;;;;20.91;62.37;100788.84;5021789;28;4274;-68
2023/01/01 06:59:59;;;;;;;;;;;;;;;20.90;62.42;100804.63;5021273;28;5264;-71
2023/01/01 07:02:26;;;;;;;;;;;;;;;20.93;62.58;100791.06;5017145;28;4022;-70
2023/01/01 07:04:52;;;;;;;;;;;;;;;20.99;62.85;100799.22;5016377;28;4213;-68
2023/01/01 07:07:19;;;;;;;;;;;;;;;20.97;62.69;100807.78;5023611;28;4093;-63
2023/01/01 07:09:45;;;;;;;;;;;;;;;20.83;57.78;100811.53;5016872;28;4032;-64
2023/01/01 07:12:11;;;;;;;;;;;;;;;20.81;58.96;100802.06;5020770;28;6199;-63
2023/01/01 07:14:38;;;;;;;;;;;;;;;20.80;57.38;100812.84;5022972;28;4010;-65
2023/01/01 07:17:04;;;;;;;;;;;;;;;20.80;60.17;100814.94;5024164;28;4137;-64
2023/01/01 07:19:30;;;;;;;;;;;;;;;20.78;57.98;100826.41;5024911;28;4483;-63
2023/01/01 07:21:57;;;;;;;;;;;;;;;20.76;57.14;100835.69;5026910;28;4027;-63
2023/01/01 07:24:23;;;;;;;;;;;;;;;20.81;57.71;100839.47;5023444;28;4044;-67
2023/01/01 07:26:50;;;;;;;;;;;;;;;20.80;58.84;100840.84;5022381;28;4122;-63
2023/01/01 07:29:16;;;;;;;;;;;;;;;20.75;58.52;100839.19;5026701;28;4117;-63
2023/01/01 07:31:43;;;;;;;;;;;;;;;20.80;58.34;100841.63;5025107;28;5228;-72
2023/01/01 07:34:13;;;;;;;;;;;;;;;20.81;58.54;100837.34;5020227;28;4210;-70
2023/01/01 07:36:49;;;;;;;;;;;;;;;20.82;58.49;100843.81;5023279;28;4136;-70
2023/01/01 07:39:15;;;;;;;;;;;;;;;20.80;58.81;100852.38;5021069;28;4183;-70
2023/01/01 07:41:42;;;;;;;;;;;;;;;20.80;58.79;100853.13;5022744;28;5502;-70
2023/01/01 07:44:11;;;;;;;;;;;;;;;20.79;58.83;100856.66;5027180;28;3965;-70
2023/01/01 07:46:38;;;;;;;;;;;;;;;20.79;58.58;100863.13;5022361;28;4148;-70
2023/01/01 07:49:04;;;;;;;;;;;;;;;20.78;58.67;100884.69;5020769;28;4113;-70
2023/01/01 07:51:31;;;;;;;;;;;;;;;20.78;58.59;100884.69;5018952;28;5275;-70
2023/01/01 07:53:57;;;;;;;;;;;;;;;20.78;58.44;100878.19;5022774;28;4082;-70
2023/01/01 07:56:32;;;;;;;;;;;;;;;20.77;58.99;100873.81;5021326;28;4235;-71
2023/01/01 07:58:59;;;;;;;;;;;;;;;20.77;58.78;100876.69;5025446;28;4159;-72
2023/01/01 08:01:26;;;;;;;;;;;;;;;20.76;58.45;100870.22;5024536;28;4145;-70
2023/01/01 08:03:52;;;;;;;;;;;;;;;20.76;58.56;100873.09;5022047;28;4353;-69
2023/01/01 08:06:19;;;;;;;;;;;;;;;20.74;58.31;100873.00;5023086;28;4327;-69
2023/01/01 08:08:45;;;;;;;;;;;;;;;20.75;58.48;100877.34;5021743;28;4274;-70
2023/01/01 08:11:11;;;;;;;;;;;;;;;20.75;58.06;100888.13;5023470;28;4180;-69
2023/01/01 08:13:38;;;;;;;;;;;;;;;20.74;58.47;100893.13;5021716;28;4151;-69
2023/01/01 08:16:04;;;;;;;;;;;;;;;20.73;58.83;100877.28;5021571;28;4126;-69
2023/01/01 08:18:31;;;;;;;;;;;;;;;20.73;58.54;100893.78;5025604;28;4201;-69
2023/01/01 08:20:57;;;;;;;;;;;;;;;20.73;58.52;100890.91;5017185;28;4310;-70
2023/01/01 08:23:23;;;;;;;;;;;;;;;20.71;58.58;100895.19;5019309;28;4037;-71
2023/01/01 08:25:50;;;;;;;;;;;;;;;20.74;58.57;100903.91;5006476;28;3951;-71
2023/01/01 08:28:16;;;;;;;;;;;;;;;20.71;58.55;100917.47;5022703;28;4476;-72
2023/01/01 08:30:42;;;;;;;;;;;;;;;20.71;58.37;100920.34;5021975;28;5106;-71
2023/01/01 08:33:10;;;;;;;;;;;;;;;20.65;57.55;100899.91;5024480;28;5228;-64
2023/01/01 08:35:36;;;;;;;;;;;;;;;20.58;56.86;100913.28;5024124;28;4884;-61
2023/01/01 08:38:03;;;;;;;;;;;;;;;20.56;56.22;100912.41;4998572;28;4045;-62
2023/01/01 08:40:29;;;;;;;;;;;;;;;20.55;56.27;100925.28;5016629;28;5314;-63
2023/01/01 08:42:55;;;;;;;;;;;;;;;20.53;56.04;100928.09;5019877;28;4188;-63
2023/01/01 08:45:22;;;;;;;;;;;;;;;20.49;56.60;100925.75;5018190;28;4170;-63
2023/01/01 08:47:48;;;;;;;;;;;;;;;20.42;56.35;100936.25;5019011;28;4190;-63
2023/01/01 08:50:14;;;;;;;;;;;;;;;20.50;55.58;100930.88;5019542;28;5571;-62
2023/01/01 08:52:41;;;;;;;;;;;;;;;20.50;55.63;100933.00;5015488;28;5001;-62
2023/01/01 08:55:07;;;;;;;;;;;;;;;20.50;55.36;100938.75;5020739;28;5267;-62
2023/01/01 08:57:34;;;;;;;;;;;;;;;20.50;55.31;100924.38;5026562;28;4090;-61
2023/01/01 09:00:00;;;;;;;;;;;;;;;20.47;55.34;100937.91;5025478;28;4178;-62
2023/01/01 09:02:29;;;;;;;;;;;;;;;20.46;55.06;100930.69;5021287;28;4171;-61
2023/01/01 09:04:56;;;;;;;;;;;;;;;20.45;55.00;100949.31;5024914;28;4099;-61
2023/01/01 09:07:22;;;;;;;;;;;;;;;20.46;54.78;100958.72;5021488;28;5255;-61
2023/01/01 09:09:49;;;;;;;;;;;;;;;20.46;54.88;100958.72;5025414;28;4134;-61
2023/01/01 09:12:15;;;;;;;;;;;;;;;20.45;54.81;100952.19;5021774;28;5207;-61
2023/01/01 09:14:41;;;;;;;;;;;;;;;20.45;54.85;100963.69;5024351;28;4108;-61
2023/01/01 09:17:08;;;;;;;;;;;;;;;20.44;54.70;100973.72;5025421;28;4098;-61
2023/01/01 09:19:34;;;;;;;;;;;;;;;20.45;54.72;100980.22;5023560;28;4186;-61
2023/01/01 09:22:00;;;;;;;;;;;;;;;20.45;54.74;100992.47;5022507;28;4231;-62
2023/01/01 09:24:27;;;;;;;;;;;;;;;20.44;54.86;100985.22;5025456;28;4050;-61
2023/01/01 09:26:53;;;;;;;;;;;;;;;20.45;54.70;100980.22;5025850;28;4196;-61
2023/01/01 09:29:20;;;;;;;;;;;;;;;20.42;54.71;100982.25;5023391;28;4143;-61
2023/01/01 09:31:47;;;;;;;;;;;;;;;20.42;54.57;100982.25;5025599;28;4121;-61
2023/01/01 09:34:13;;;;;;;;;;;;;;;20.42;54.14;100982.25;5025078;28;4154;-61
2023/01/01 09:36:40;;;;;;;;;;;;;;;20.43;54.12;100983.75;5021504;28;4173;-62
2023/01/01 09:39:06;;;;;;;;;;;;;;;20.43;54.26;100983.75;5019739;28;4338;-61
2023/01/01 09:41:37;;;;;;;;;;;;;;;20.43;54.46;100978.00;5018260;28;4187;-61
2023/01/01 09:44:05;;;;;;;;;;;;;;;20.42;54.25;100979.38;5023804;28;5097;-61
2023/01/01 09:46:32;;;;;;;;;;;;;;;20.42;54.16;100982.25;5014837;28;4239;-61
2023/01/01 09:49:00;;;;;;;;;;;;;;;20.44;54.09;100981.63;5025225;28;4013;-61
2023/01/01 09:51:27;;;;;;;;;;;;;;;20.42;53.98;100987.28;5005562;28;4196;-61
2023/01/01 09:53:56;;;;;;;;;;;;;;;20.42;54.12;100982.25;5002965;28;5216;-61
2023/01/01 09:56:24;;;;;;;;;;;;;;;20.42;54.16;100990.88;5023968;28;4133;-61
2023/01/01 09:58:50;;;;;;;;;;;;;;;20.41;54.06;100997.28;5024904;28;4036;-61
2023/01/01 10:01:29;;;;;;;;;;;;;;;20.40;54.41;100990.06;5024737;28;4076;-61
2023/01/01 10:03:55;;;;;;;;;;;;;;;20.40;54.15;101002.28;5024887;28;4152;-61
2023/01/01 10:06:32;;;;;;;;;;;;;;;20.41;54.12;101003.78;5015990;28;4132;-61
2023/01/01 10:09:05;;;;;;;;;;;;;;;20.42;54.03;101016.78;4994702;28;4204;-61
2023/01/01 10:11:35;;;;;;;;;;;;;;;20.42;54.23;101005.28;5002469;28;4149;-61
2023/01/01 10:14:02;;;;;;;;;;;;;;;20.43;54.08;101008.88;5018047;28;3966;-61
2023/01/01 10:16:33;;;;;;;;;;;;;;;20.41;54.20;101003.03;5022257;28;3980;-61
2023/01/01 10:19:18;;;;;;;;;;;;;;;20.40;54.24;101005.16;5024483;28;5264;-61
2023/01/01 10:21:45;;;;;;;;;;;;;;;20.40;54.09;101007.31;5018610;28;4124;-61
2023/01/01 10:24:23;;;;;;;;;;;;;;;20.40;53.95;101013.78;5023619;28;4118;-61
2023/01/01 10:26:50;;;;;;;;;;;;;;;20.39;53.85;101023.81;5006147;28;4332;-61
2023/01/01 10:29:21;;;;;;;;;;;;;;;20.40;53.85;101031.06;5005986;28;4733;-61
2023/01/01 10:31:47;;;;;;;;;;;;;;;20.39;53.71;101029.56;5021554;28;6360;-61
2023/01/01 10:34:14;;;;;;;;;;;;;;;20.39;53.90;101023.81;5018435;28;5803;-61
2023/01/01 10:36:41;;;;;;;;;;;;;;;20.39;53.81;101040.34;4992792;28;5286;-61
2023/01/01 10:39:12;;;;;;;;;;;;;;;20.38;53.67;101033.81;5021362;28;4208;-61
2023/01/01 10:41:39;;;;;;;;;;;;;;;20.36;53.67;101035.88;5014958;28;4207;-59
2023/01/01 10:44:05;;;;;;;;;;;;;;;20.37;53.76;101029.47;5014432;28;4452;-59
2023/01/01 10:46:35;;;;;;;;;;;;;;;20.34;53.72;101038.63;5005533;28;4182;-59
2023/01/01 10:49:02;;;;;;;;;;;;;;;20.32;52.68;101024.91;4998214;28;4249;-59
2023/01/01 10:51:28;;;;;;;;;;;;;;;20.30;51.86;101016.19;5018403;28;5400;-59
2023/01/01 10:53:54;;;;;;;;;;;;;;;20.24;51.87;101018.75;4998446;28;3896;-60
2023/01/01 10:56:21;;;;;;;;;;;;;;;20.21;50.79;101028.69;4999238;28;5381;-60
2023/01/01 10:58:53;;;;;;;;;;;;;;;20.25;50.45;101034.63;4994554;28;4217;-60
2023/01/01 11:01:21;;;;;;;;;;;;;;;20.28;50.31;101041.97;5019304;28;4138;-60
2023/01/01 11:04:06;;;;;;;;;;;;;;;20.29;51.18;101040.56;5021554;28;4186;-60
2023/01/01 11:06:39;;;;;;;;;;;;;;;20.39;51.43;101046.84;5016284;28;4119;-61
2023/01/01 11:09:06;;;;;;;;;;;;;;;20.32;51.00;101065.19;5021528;28;5148;-61
2023/01/01 11:11:38;;;;;;;;;;;;;;;20.33;50.42;101066.66;4997801;28;4009;-63
2023/01/01 11:14:07;;;;;;;;;;;;;;;20.34;50.24;101056.66;5004029;28;4197;-63
2023/01/01 11:16:33;;;;;;;;;;;;;;;20.33;50.51;101072.41;5002177;28;4177;-63
2023/01/01 11:19:00;;;;;;;;;;;;;;;20.33;50.86;101077.41;4999357;28;5155;-68
2023/01/01 11:21:27;;;;;;;;;;;;;;;20.34;51.10;101085.41;5022784;28;4205;-63
2023/01/01 11:24:08;;;;;;;;;;;;;;;20.33;51.36;101072.41;5023198;28;4385;-63
2023/01/01 11:26:34;;;;;;;;;;;;;;;20.32;51.69;101059.44;4997780;28;4031;-63
2023/01/01 11:29:02;;;;;;;;;;;;;;;20.32;51.71;101065.19;5023254;28;4192;-63
2023/01/01 11:31:29;;;;;;;;;;;;;;;20.32;51.78;101068.06;5023286;28;3979;-63
2023/01/01 11:33:55;;;;;;;;;;;;;;;20.30;52.16;101062.94;4994575;28;4000;-63
2023/01/01 11:36:28;;;;;;;;;;;;;;;20.30;52.15;101057.19;5018957;28;4286;-63
2023/01/01 11:39:06;;;;;;;;;;;;;;;20.30;52.15;101042.81;5022861;28;4363;-63
2023/01/01 11:41:40;;;;;;;;;;;;;;;20.31;52.42;101040.66;4998007;28;6298;-63
2023/01/01 11:44:07;;;;;;;;;;;;;;;20.32;52.27;101050.81;5000268;28;5413;-63
2023/01/01 11:46:36;;;;;;;;;;;;;;;20.31;52.63;101072.31;5021315;28;4223;-63
2023/01/01 11:49:02;;;;;;;;;;;;;;;20.34;52.74;101082.53;4998064;28;4296;-63
2023/01/01 11:51:30;;;;;;;;;;;;;;;20.33;52.83;101083.19;5021483;28;4327;-63
2023/01/01 11:54:22;;;;;;;;;;;;;;;20.33;52.97;101083.91;4992905;28;4200;-63
2023/01/01 11:56:51;;;;;;;;;;;;;;;20.32;52.68;101076.69;5014494;28;4100;-64
2023/01/01 11:59:17;;;;;;;;;;;;;;;20.34;52.92;101076.78;5021259;28;4388;-62
2023/01/01 12:01:45;;;;;;;;;;;;;;;20.35;52.72;101080.41;4993409;28;4130;-62
2023/01/01 12:04:12;;;;;;;;;;;;;;;20.35;52.74;101069.63;4992224;28;4471;-63
2023/01/01 12:06:42;;;;;;;;;;;;;;;20.33;52.95;101083.91;5014797;28;4138;-62
2023/01/01 12:09:13;;;;;;;;;;;;;;;20.35;52.92;101092.66;4993097;28;4228;-62
2023/01/01 12:11:55;;;;;;;;;;;;;;;20.36;53.17;101091.25;5024177;28;4021;-62
2023/01/01 12:14:41;;;;;;;;;;;;;;;20.36;53.21;101091.25;5007303;28;3975;-63
2023/01/01 12:17:16;;;;;;;;;;;;;;;20.35;53.56;101095.53;5016336;28;4181;-63
2023/01/01 12:19:47;;;;;;;;;;;;;;;20.34;53.58;101094.03;5022003;28;4134;-62
2023/01/01 12:22:16;;;;;;;;;;;;;;;20.34;53.80;101099.78;4994550;28;4513;-64
2023/01/01 12:24:42;;;;;;;;;;;;;;;20.34;53.75;101091.16;5023549;28;4135;-63
2023/01/01 12:27:09;;;;;;;;;;;;;;;20.35;54.06;101086.88;5017852;28;4166;-62
2023/01/01 12:29:55;;;;;;;;;;;;;;;20.34;53.98;101079.66;5022426;28;4193;-63
2023/01/01 12:32:40;;;;;;;;;;;;;;;20.34;54.02;101081.78;5024676;28;4112;-63
2023/01/01 12:35:29;;;;;;;;;;;;;;;20.33;53.93;101083.91;5024481;28;4205;-63
2023/01/01 12:38:10;;;;;;;;;;;;;;;20.34;53.97;101073.16;4994037;28;4214;-62
2023/01/01 12:40:42;;;;;;;;;;;;;;;20.34;53.96;101068.16;5023632;28;4062;-62
2023/01/01 12:43:10;;;;;;;;;;;;;;;20.32;54.02;101079.56;4999454;28;4203;-62
2023/01/01 12:45:49;;;;;;;;;;;;;;;20.32;54.16;101070.94;4997380;28;4283;-63
2023/01/01 12:48:48;;;;;;;;;;;;;;;20.32;54.08;101065.19;4997307;28;4321;-63
2023/01/01 12:51:29;;;;;;;;;;;;;;;20.32;54.16;101076.69;4976275;28;5558;-64
2023/01/01 12:53:58;;;;;;;;;;;;;;;20.31;54.13;101075.19;4997399;28;4263;-64
2023/01/01 12:56:34;;;;;;;;;;;;;;;20.32;54.18;101070.94;5014700;28;4100;-64
2023/01/01 12:59:03;;;;;;;;;;;;;;;20.33;54.17;101072.41;5023628;28;5220;-63
2023/01/01 13:01:30;;;;;;;;;;;;;;;20.30;54.17;101067.94;5022636;28;4034;-64
2023/01/01 13:03:59;;;;;;;;;;;;;;;20.31;54.18;101069.44;5024619;28;4161;-64